sensor_id;sensor_type;location;lat;lon;timestamp;P1;durP1;ratioP1;P2;durP2;ratioP2
75048;SDS011;63803;53.120;8.764;2023-01-20T00:02:20;3.78;;;1.23;;
75048;SDS011;63803;53.120;8.764;2023-01-20T00:04:49;3.47;;;1.42;;
75048;SDS011;63803;53.120;8.764;2023-01-20T00:07:15;2.13;;;1.20;;
75048;SDS011;63803;53.120;8.764;2023-01-20T00:09:41;2.05;;;1.25;;
75048;SDS011;63803;53.120;8.764;2023-01-20T00:12:07;3.40;;;1.48;;
75048;SDS011;63803;53.120;8.764;2023-01-20T00:14:33;2.30;;;1.38;;
75048;SDS011;63803;53.120;8.764;2023-01-20T00:16:59;1.55;;;1.15;;
75048;SDS011;63803;53.120;8.764;2023-01-20T00:19:26;1.50;;;1.13;;
75048;SDS011;63803;53.120;8.764;2023-01-20T00:21:52;2.70;;;1.55;;
75048;SDS011;63803;53.120;8.764;2023-01-20T00:24:18;2.95;;;1.30;;
75048;SDS011;63803;53.120;8.764;2023-01-20T00:26:44;1.80;;;1.17;;
75048;SDS011;63803;53.120;8.764;2023-01-20T00:29:10;2.22;;;1.50;;
75048;SDS011;63803;53.120;8.764;2023-01-20T00:31:36;1.67;;;1.35;;
75048;SDS011;63803;53.120;8.764;2023-01-20T00:34:03;5.60;;;1.42;;
75048;SDS011;63803;53.120;8.764;2023-01-20T00:36:30;2.50;;;1.35;;
75048;SDS011;63803;53.120;8.764;2023-01-20T00:38:56;2.75;;;1.40;;
75048;SDS011;63803;53.120;8.764;2023-01-20T00:41:23;2.45;;;1.30;;
75048;SDS011;63803;53.120;8.764;2023-01-20T00:43:49;3.88;;;1.58;;
75048;SDS011;63803;53.120;8.764;2023-01-20T00:46:16;4.78;;;1.23;;
75048;SDS011;63803;53.120;8.764;2023-01-20T00:48:42;2.40;;;1.40;;
75048;SDS011;63803;53.120;8.764;2023-01-20T00:51:08;5.38;;;1.38;;
75048;SDS011;63803;53.120;8.764;2023-01-20T00:53:35;2.55;;;1.50;;
75048;SDS011;63803;53.120;8.764;2023-01-20T00:56:01;2.63;;;1.58;;
75048;SDS011;63803;53.120;8.764;2023-01-20T00:58:27;4.18;;;1.73;;
75048;SDS011;63803;53.120;8.764;2023-01-20T01:00:54;2.38;;;1.70;;
75048;SDS011;63803;53.120;8.764;2023-01-20T01:03:20;2.42;;;1.40;;
75048;SDS011;63803;53.120;8.764;2023-01-20T01:05:46;2.47;;;1.60;;
75048;SDS011;63803;53.120;8.764;2023-01-20T01:08:13;3.47;;;1.50;;
75048;SDS011;63803;53.120;8.764;2023-01-20T01:10:39;3.03;;;1.63;;
75048;SDS011;63803;53.120;8.764;2023-01-20T01:13:05;3.38;;;1.58;;
75048;SDS011;63803;53.120;8.764;2023-01-20T01:15:32;3.33;;;1.50;;
75048;SDS011;63803;53.120;8.764;2023-01-20T01:17:58;3.45;;;1.58;;
75048;SDS011;63803;53.120;8.764;2023-01-20T01:20:26;2.83;;;1.90;;
75048;SDS011;63803;53.120;8.764;2023-01-20T01:22:52;3.67;;;1.80;;
75048;SDS011;63803;53.120;8.764;2023-01-20T01:25:19;2.78;;;1.40;;
75048;SDS011;63803;53.120;8.764;2023-01-20T01:27:45;3.05;;;1.58;;
75048;SDS011;63803;53.120;8.764;2023-01-20T01:30:11;2.63;;;1.48;;
75048;SDS011;63803;53.120;8.764;2023-01-20T01:32:38;2.03;;;1.25;;
75048;SDS011;63803;53.120;8.764;2023-01-20T01:35:05;3.22;;;1.75;;
75048;SDS011;63803;53.120;8.764;2023-01-20T01:37:31;2.97;;;1.63;;
75048;SDS011;63803;53.120;8.764;2023-01-20T01:39:57;3.17;;;1.60;;
75048;SDS011;63803;53.120;8.764;2023-01-20T01:42:24;2.30;;;1.33;;
75048;SDS011;63803;53.120;8.764;2023-01-20T01:47:35;3.13;;;1.65;;
75048;SDS011;63803;53.120;8.764;2023-01-20T01:50:13;5.28;;;1.90;;
75048;SDS011;63803;53.120;8.764;2023-01-20T01:52:47;4.75;;;2.00;;
75048;SDS011;63803;53.120;8.764;2023-01-20T01:55:17;2.67;;;1.90;;
75048;SDS011;63803;53.120;8.764;2023-01-20T01:57:46;3.25;;;1.65;;
75048;SDS011;63803;53.120;8.764;2023-01-20T02:00:13;3.17;;;1.80;;
75048;SDS011;63803;53.120;8.764;2023-01-20T02:02:40;2.92;;;1.58;;
75048;SDS011;63803;53.120;8.764;2023-01-20T02:05:08;2.78;;;1.63;;
75048;SDS011;63803;53.120;8.764;2023-01-20T02:07:36;4.22;;;1.85;;
75048;SDS011;63803;53.120;8.764;2023-01-20T02:10:02;5.10;;;2.20;;
75048;SDS011;63803;53.120;8.764;2023-01-20T02:12:29;4.72;;;1.92;;
75048;SDS011;63803;53.120;8.764;2023-01-20T02:14:56;4.20;;;1.90;;
75048;SDS011;63803;53.120;8.764;2023-01-20T02:34:45;2.80;;;1.85;;
75048;SDS011;63803;53.120;8.764;2023-01-20T02:37:23;5.30;;;2.00;;
75048;SDS011;63803;53.120;8.764;2023-01-20T02:40:13;5.35;;;1.83;;
75048;SDS011;63803;53.120;8.764;2023-01-20T02:43:06;3.10;;;2.30;;
75048;SDS011;63803;53.120;8.764;2023-01-20T02:45:42;4.30;;;1.87;;
75048;SDS011;63803;53.120;8.764;2023-01-20T02:51:00;3.22;;;2.13;;
75048;SDS011;63803;53.120;8.764;2023-01-20T02:53:40;2.20;;;1.90;;
75048;SDS011;63803;53.120;8.764;2023-01-20T02:56:12;3.08;;;2.35;;
75048;SDS011;63803;53.120;8.764;2023-01-20T02:58:41;3.15;;;2.00;;
75048;SDS011;63803;53.120;8.764;2023-01-20T03:01:12;3.53;;;2.28;;
75048;SDS011;63803;53.120;8.764;2023-01-20T03:03:51;3.80;;;2.38;;
75048;SDS011;63803;53.120;8.764;2023-01-20T03:06:21;3.05;;;2.17;;
75048;SDS011;63803;53.120;8.764;2023-01-20T03:08:50;2.95;;;2.40;;
75048;SDS011;63803;53.120;8.764;2023-01-20T03:11:18;3.92;;;2.20;;
75048;SDS011;63803;53.120;8.764;2023-01-20T03:13:49;2.95;;;2.17;;
75048;SDS011;63803;53.120;8.764;2023-01-20T03:16:43;3.90;;;2.10;;
75048;SDS011;63803;53.120;8.764;2023-01-20T03:19:12;10.75;;;2.58;;
75048;SDS011;63803;53.120;8.764;2023-01-20T03:21:39;2.50;;;2.08;;
75048;SDS011;63803;53.120;8.764;2023-01-20T03:24:06;3.90;;;2.47;;
75048;SDS011;63803;53.120;8.764;2023-01-20T03:26:32;4.35;;;2.50;;
75048;SDS011;63803;53.120;8.764;2023-01-20T03:29:01;3.00;;;2.40;;
75048;SDS011;63803;53.120;8.764;2023-01-20T03:31:35;3.70;;;2.05;;
75048;SDS011;63803;53.120;8.764;2023-01-20T03:34:06;4.50;;;2.05;;
75048;SDS011;63803;53.120;8.764;2023-01-20T03:36:35;3.88;;;2.05;;
75048;SDS011;63803;53.120;8.764;2023-01-20T03:39:03;4.30;;;3.55;;
75048;SDS011;63803;53.120;8.764;2023-01-20T03:52:44;6.07;;;2.10;;
75048;SDS011;63803;53.120;8.764;2023-01-20T03:55:32;4.47;;;2.33;;
75048;SDS011;63803;53.120;8.764;2023-01-20T03:58:35;4.13;;;2.28;;
75048;SDS011;63803;53.120;8.764;2023-01-20T04:00:55;3.33;;;2.30;;
75048;SDS011;63803;53.120;8.764;2023-01-20T04:03:24;3.72;;;2.30;;
75048;SDS011;63803;53.120;8.764;2023-01-20T04:05:54;3.60;;;2.30;;
75048;SDS011;63803;53.120;8.764;2023-01-20T04:08:23;3.33;;;2.30;;
75048;SDS011;63803;53.120;8.764;2023-01-20T04:10:53;4.50;;;2.42;;
75048;SDS011;63803;53.120;8.764;2023-01-20T04:13:21;3.33;;;2.13;;
75048;SDS011;63803;53.120;8.764;2023-01-20T04:15:47;5.03;;;2.42;;
75048;SDS011;63803;53.120;8.764;2023-01-20T04:18:15;3.88;;;2.38;;
75048;SDS011;63803;53.120;8.764;2023-01-20T04:20:44;4.18;;;2.65;;
75048;SDS011;63803;53.120;8.764;2023-01-20T04:23:20;5.95;;;2.50;;
75048;SDS011;63803;53.120;8.764;2023-01-20T04:25:50;4.43;;;2.40;;
75048;SDS011;63803;53.120;8.764;2023-01-20T04:28:16;3.33;;;1.80;;
75048;SDS011;63803;53.120;8.764;2023-01-20T04:30:42;4.38;;;2.28;;
75048;SDS011;63803;53.120;8.764;2023-01-20T04:33:08;4.63;;;2.45;;
75048;SDS011;63803;53.120;8.764;2023-01-20T04:35:34;3.75;;;2.28;;
75048;SDS011;63803;53.120;8.764;2023-01-20T04:38:00;2.38;;;2.17;;
75048;SDS011;63803;53.120;8.764;2023-01-20T04:40:26;2.85;;;2.28;;
75048;SDS011;63803;53.120;8.764;2023-01-20T04:42:52;3.75;;;2.55;;
75048;SDS011;63803;53.120;8.764;2023-01-20T04:45:18;5.68;;;2.63;;
75048;SDS011;63803;53.120;8.764;2023-01-20T04:47:45;4.32;;;2.42;;
75048;SDS011;63803;53.120;8.764;2023-01-20T04:50:11;2.33;;;2.13;;
75048;SDS011;63803;53.120;8.764;2023-01-20T04:52:38;5.30;;;2.33;;
75048;SDS011;63803;53.120;8.764;2023-01-20T04:55:04;3.92;;;2.40;;
75048;SDS011;63803;53.120;8.764;2023-01-20T04:57:30;3.88;;;2.40;;
75048;SDS011;63803;53.120;8.764;2023-01-20T04:59:56;3.63;;;2.00;;
75048;SDS011;63803;53.120;8.764;2023-01-20T05:02:23;2.22;;;2.03;;
75048;SDS011;63803;53.120;8.764;2023-01-20T05:04:48;2.30;;;2.10;;
75048;SDS011;63803;53.120;8.764;2023-01-20T05:07:14;2.55;;;2.15;;
75048;SDS011;63803;53.120;8.764;2023-01-20T05:09:41;3.85;;;2.38;;
75048;SDS011;63803;53.120;8.764;2023-01-20T05:12:07;3.38;;;1.90;;
75048;SDS011;63803;53.120;8.764;2023-01-20T05:14:33;2.85;;;2.33;;
75048;SDS011;63803;53.120;8.764;2023-01-20T05:16:59;4.88;;;2.28;;
75048;SDS011;63803;53.120;8.764;2023-01-20T05:19:25;2.85;;;2.15;;
75048;SDS011;63803;53.120;8.764;2023-01-20T05:21:51;2.85;;;2.25;;
75048;SDS011;63803;53.120;8.764;2023-01-20T05:24:17;5.05;;;2.10;;
75048;SDS011;63803;53.120;8.764;2023-01-20T05:26:43;2.90;;;1.90;;
75048;SDS011;63803;53.120;8.764;2023-01-20T05:29:09;3.50;;;2.25;;
75048;SDS011;63803;53.120;8.764;2023-01-20T05:31:35;2.42;;;2.10;;
75048;SDS011;63803;53.120;8.764;2023-01-20T05:34:03;4.13;;;2.20;;
75048;SDS011;63803;53.120;8.764;2023-01-20T05:36:29;3.00;;;2.28;;
75048;SDS011;63803;53.120;8.764;2023-01-20T05:38:57;3.45;;;2.55;;
75048;SDS011;63803;53.120;8.764;2023-01-20T05:41:23;5.80;;;2.28;;
75048;SDS011;63803;53.120;8.764;2023-01-20T05:43:51;4.35;;;2.42;;
75048;SDS011;63803;53.120;8.764;2023-01-20T05:46:18;3.75;;;2.47;;
75048;SDS011;63803;53.120;8.764;2023-01-20T05:48:44;4.60;;;2.85;;
75048;SDS011;63803;53.120;8.764;2023-01-20T05:51:10;5.10;;;2.47;;
75048;SDS011;63803;53.120;8.764;2023-01-20T05:53:36;6.15;;;2.40;;
75048;SDS011;63803;53.120;8.764;2023-01-20T05:56:03;5.93;;;2.50;;
75048;SDS011;63803;53.120;8.764;2023-01-20T05:58:30;3.67;;;2.40;;
75048;SDS011;63803;53.120;8.764;2023-01-20T06:01:06;4.10;;;2.53;;
75048;SDS011;63803;53.120;8.764;2023-01-20T06:03:35;6.63;;;2.58;;
75048;SDS011;63803;53.120;8.764;2023-01-20T06:06:02;9.38;;;2.72;;
75048;SDS011;63803;53.120;8.764;2023-01-20T06:08:30;15.30;;;2.80;;
75048;SDS011;63803;53.120;8.764;2023-01-20T06:10:57;13.02;;;2.72;;
75048;SDS011;63803;53.120;8.764;2023-01-20T06:13:23;23.25;;;3.97;;
75048;SDS011;63803;53.120;8.764;2023-01-20T06:15:50;12.77;;;3.60;;
75048;SDS011;63803;53.120;8.764;2023-01-20T06:18:18;9.00;;;2.92;;
75048;SDS011;63803;53.120;8.764;2023-01-20T06:20:45;11.50;;;3.42;;
75048;SDS011;63803;53.120;8.764;2023-01-20T06:23:11;9.73;;;3.05;;
75048;SDS011;63803;53.120;8.764;2023-01-20T06:25:37;11.98;;;3.00;;
75048;SDS011;63803;53.120;8.764;2023-01-20T06:28:03;11.02;;;3.17;;
75048;SDS011;63803;53.120;8.764;2023-01-20T06:30:30;6.47;;;2.50;;
75048;SDS011;63803;53.120;8.764;2023-01-20T06:32:56;6.60;;;2.45;;
75048;SDS011;63803;53.120;8.764;2023-01-20T06:35:25;16.58;;;2.83;;
75048;SDS011;63803;53.120;8.764;2023-01-20T06:37:51;9.23;;;2.47;;
75048;SDS011;63803;53.120;8.764;2023-01-20T06:40:17;16.73;;;2.90;;
75048;SDS011;63803;53.120;8.764;2023-01-20T06:42:43;6.85;;;2.60;;
75048;SDS011;63803;53.120;8.764;2023-01-20T06:45:10;6.65;;;2.40;;
75048;SDS011;63803;53.120;8.764;2023-01-20T06:47:36;7.70;;;2.67;;
75048;SDS011;63803;53.120;8.764;2023-01-20T06:50:02;9.75;;;2.60;;
75048;SDS011;63803;53.120;8.764;2023-01-20T06:52:28;6.25;;;2.50;;
75048;SDS011;63803;53.120;8.764;2023-01-20T06:54:54;9.88;;;2.70;;
75048;SDS011;63803;53.120;8.764;2023-01-20T06:57:20;4.97;;;2.70;;
75048;SDS011;63803;53.120;8.764;2023-01-20T06:59:46;5.53;;;2.55;;
75048;SDS011;63803;53.120;8.764;2023-01-20T07:02:12;7.88;;;2.70;;
75048;SDS011;63803;53.120;8.764;2023-01-20T07:04:38;6.88;;;2.60;;
75048;SDS011;63803;53.120;8.764;2023-01-20T07:07:04;12.40;;;2.70;;
75048;SDS011;63803;53.120;8.764;2023-01-20T07:09:30;5.72;;;2.28;;
75048;SDS011;63803;53.120;8.764;2023-01-20T07:11:57;5.20;;;2.63;;
75048;SDS011;63803;53.120;8.764;2023-01-20T07:14:23;8.93;;;2.80;;
75048;SDS011;63803;53.120;8.764;2023-01-20T07:16:49;7.55;;;2.53;;
75048;SDS011;63803;53.120;8.764;2023-01-20T07:19:14;8.07;;;3.22;;
75048;SDS011;63803;53.120;8.764;2023-01-20T07:21:58;8.52;;;2.95;;
75048;SDS011;63803;53.120;8.764;2023-01-20T07:24:45;4.93;;;2.30;;
75048;SDS011;63803;53.120;8.764;2023-01-20T07:27:11;10.82;;;2.63;;
75048;SDS011;63803;53.120;8.764;2023-01-20T07:29:39;8.27;;;2.38;;
75048;SDS011;63803;53.120;8.764;2023-01-20T07:32:06;11.77;;;2.70;;
75048;SDS011;63803;53.120;8.764;2023-01-20T07:34:32;6.15;;;2.40;;
75048;SDS011;63803;53.120;8.764;2023-01-20T07:36:58;6.70;;;2.40;;
75048;SDS011;63803;53.120;8.764;2023-01-20T07:39:27;5.70;;;2.53;;
75048;SDS011;63803;53.120;8.764;2023-01-20T07:41:53;5.32;;;2.60;;
75048;SDS011;63803;53.120;8.764;2023-01-20T07:44:19;5.40;;;2.50;;
75048;SDS011;63803;53.120;8.764;2023-01-20T07:46:45;6.63;;;2.50;;
75048;SDS011;63803;53.120;8.764;2023-01-20T07:49:14;8.18;;;2.50;;
75048;SDS011;63803;53.120;8.764;2023-01-20T07:51:40;8.48;;;2.15;;
75048;SDS011;63803;53.120;8.764;2023-01-20T07:54:09;6.60;;;2.97;;
75048;SDS011;63803;53.120;8.764;2023-01-20T07:56:36;3.40;;;2.35;;
75048;SDS011;63803;53.120;8.764;2023-01-20T07:59:02;3.50;;;2.45;;
75048;SDS011;63803;53.120;8.764;2023-01-20T08:01:29;5.63;;;2.53;;
75048;SDS011;63803;53.120;8.764;2023-01-20T08:03:56;8.68;;;2.42;;
75048;SDS011;63803;53.120;8.764;2023-01-20T08:06:25;3.70;;;2.13;;
75048;SDS011;63803;53.120;8.764;2023-01-20T08:08:52;4.63;;;2.10;;
75048;SDS011;63803;53.120;8.764;2023-01-20T08:11:19;6.43;;;2.60;;
75048;SDS011;63803;53.120;8.764;2023-01-20T08:13:46;4.43;;;2.30;;
75048;SDS011;63803;53.120;8.764;2023-01-20T08:16:12;3.17;;;2.33;;
75048;SDS011;63803;53.120;8.764;2023-01-20T08:18:40;5.22;;;2.13;;
75048;SDS011;63803;53.120;8.764;2023-01-20T08:21:07;10.50;;;2.58;;
75048;SDS011;63803;53.120;8.764;2023-01-20T08:23:45;4.45;;;2.20;;
75048;SDS011;63803;53.120;8.764;2023-01-20T08:26:11;2.85;;;2.30;;
75048;SDS011;63803;53.120;8.764;2023-01-20T08:28:38;3.78;;;2.47;;
75048;SDS011;63803;53.120;8.764;2023-01-20T08:33:34;4.78;;;2.53;;
75048;SDS011;63803;53.120;8.764;2023-01-20T08:36:08;4.47;;;2.50;;
75048;SDS011;63803;53.120;8.764;2023-01-20T08:38:36;4.05;;;2.33;;
75048;SDS011;63803;53.120;8.764;2023-01-20T08:41:06;3.33;;;2.40;;
75048;SDS011;63803;53.120;8.764;2023-01-20T08:43:38;4.30;;;2.78;;
75048;SDS011;63803;53.120;8.764;2023-01-20T08:46:05;9.73;;;2.13;;
75048;SDS011;63803;53.120;8.764;2023-01-20T08:48:34;3.58;;;2.58;;
75048;SDS011;63803;53.120;8.764;2023-01-20T08:51:05;3.55;;;2.30;;
75048;SDS011;63803;53.120;8.764;2023-01-20T08:53:34;5.00;;;2.40;;
75048;SDS011;63803;53.120;8.764;2023-01-20T08:56:00;7.85;;;2.83;;
75048;SDS011;63803;53.120;8.764;2023-01-20T08:58:28;3.80;;;2.17;;
75048;SDS011;63803;53.120;8.764;2023-01-20T09:00:54;6.60;;;2.55;;
75048;SDS011;63803;53.120;8.764;2023-01-20T09:03:21;3.72;;;2.38;;
75048;SDS011;63803;53.120;8.764;2023-01-20T09:05:48;3.22;;;2.08;;
75048;SDS011;63803;53.120;8.764;2023-01-20T09:08:15;10.27;;;2.70;;
75048;SDS011;63803;53.120;8.764;2023-01-20T09:10:42;13.57;;;2.45;;
75048;SDS011;63803;53.120;8.764;2023-01-20T09:13:09;3.97;;;2.15;;
75048;SDS011;63803;53.120;8.764;2023-01-20T09:15:35;3.53;;;2.40;;
75048;SDS011;63803;53.120;8.764;2023-01-20T09:18:01;5.32;;;2.00;;
75048;SDS011;63803;53.120;8.764;2023-01-20T09:20:27;3.80;;;2.58;;
75048;SDS011;63803;53.120;8.764;2023-01-20T09:22:54;5.00;;;2.00;;
75048;SDS011;63803;53.120;8.764;2023-01-20T09:25:24;3.70;;;2.35;;
75048;SDS011;63803;53.120;8.764;2023-01-20T09:27:50;6.18;;;2.60;;
75048;SDS011;63803;53.120;8.764;2023-01-20T09:30:16;7.47;;;2.63;;
75048;SDS011;63803;53.120;8.764;2023-01-20T09:32:43;2.90;;;2.15;;
75048;SDS011;63803;53.120;8.764;2023-01-20T09:35:09;4.45;;;2.30;;
75048;SDS011;63803;53.120;8.764;2023-01-20T09:37:35;4.63;;;2.22;;
75048;SDS011;63803;53.120;8.764;2023-01-20T09:40:21;5.07;;;2.28;;
75048;SDS011;63803;53.120;8.764;2023-01-20T09:46:04;5.47;;;2.60;;
75048;SDS011;63803;53.120;8.764;2023-01-20T09:48:51;3.03;;;2.15;;
75048;SDS011;63803;53.120;8.764;2023-01-20T09:52:10;4.78;;;2.45;;
75048;SDS011;63803;53.120;8.764;2023-01-20T09:55:06;4.05;;;2.42;;
75048;SDS011;63803;53.120;8.764;2023-01-20T09:57:36;2.45;;;2.25;;
75048;SDS011;63803;53.120;8.764;2023-01-20T10:00:07;4.35;;;2.25;;
75048;SDS011;63803;53.120;8.764;2023-01-20T10:02:42;2.17;;;1.98;;
75048;SDS011;63803;53.120;8.764;2023-01-20T10:07:54;4.43;;;2.70;;
75048;SDS011;63803;53.120;8.764;2023-01-20T10:15:52;3.03;;;2.40;;
75048;SDS011;63803;53.120;8.764;2023-01-20T10:18:42;2.97;;;2.05;;
75048;SDS011;63803;53.120;8.764;2023-01-20T10:21:24;3.38;;;2.53;;
75048;SDS011;63803;53.120;8.764;2023-01-20T10:26:41;4.82;;;2.30;;
75048;SDS011;63803;53.120;8.764;2023-01-20T10:29:21;7.47;;;2.55;;
75048;SDS011;63803;53.120;8.764;2023-01-20T10:32:05;4.70;;;3.22;;
75048;SDS011;63803;53.120;8.764;2023-01-20T10:34:43;5.15;;;2.47;;
75048;SDS011;63803;53.120;8.764;2023-01-20T10:37:11;8.73;;;2.58;;
75048;SDS011;63803;53.120;8.764;2023-01-20T10:40:14;3.72;;;2.35;;
75048;SDS011;63803;53.120;8.764;2023-01-20T10:42:40;4.15;;;2.35;;
75048;SDS011;63803;53.120;8.764;2023-01-20T10:45:13;5.13;;;2.53;;
75048;SDS011;63803;53.120;8.764;2023-01-20T10:48:21;5.50;;;2.58;;
75048;SDS011;63803;53.120;8.764;2023-01-20T10:53:30;3.30;;;2.28;;
75048;SDS011;63803;53.120;8.764;2023-01-20T10:56:14;4.95;;;2.60;;
75048;SDS011;63803;53.120;8.764;2023-01-20T10:58:55;6.70;;;2.30;;
75048;SDS011;63803;53.120;8.764;2023-01-20T11:01:27;3.53;;;2.35;;
75048;SDS011;63803;53.120;8.764;2023-01-20T11:03:53;3.15;;;2.45;;
75048;SDS011;63803;53.120;8.764;2023-01-20T11:06:20;4.70;;;2.22;;
75048;SDS011;63803;53.120;8.764;2023-01-20T11:08:49;4.90;;;2.42;;
75048;SDS011;63803;53.120;8.764;2023-01-20T11:11:18;3.13;;;2.10;;
75048;SDS011;63803;53.120;8.764;2023-01-20T11:13:46;6.30;;;2.50;;
75048;SDS011;63803;53.120;8.764;2023-01-20T11:16:18;4.60;;;2.40;;
75048;SDS011;63803;53.120;8.764;2023-01-20T11:18:57;2.33;;;2.13;;
75048;SDS011;63803;53.120;8.764;2023-01-20T11:21:31;5.28;;;2.50;;
75048;SDS011;63803;53.120;8.764;2023-01-20T11:24:01;16.02;;;3.45;;
75048;SDS011;63803;53.120;8.764;2023-01-20T11:26:48;12.00;;;2.58;;
75048;SDS011;63803;53.120;8.764;2023-01-20T11:34:34;8.45;;;2.47;;
75048;SDS011;63803;53.120;8.764;2023-01-20T11:42:17;1140.40;;;327.33;;
75048;SDS011;63803;53.120;8.764;2023-01-20T11:45:00;919.88;;;270.17;;
75048;SDS011;63803;53.120;8.764;2023-01-20T11:52:34;1151.38;;;355.05;;
75048;SDS011;63803;53.120;8.764;2023-01-20T12:05:38;1138.13;;;349.35;;
75048;SDS011;63803;53.120;8.764;2023-01-20T12:08:15;1071.43;;;333.42;;
75048;SDS011;63803;53.120;8.764;2023-01-20T12:10:57;1037.80;;;338.83;;
75048;SDS011;63803;53.120;8.764;2023-01-20T12:13:31;986.97;;;314.85;;
75048;SDS011;63803;53.120;8.764;2023-01-20T12:16:24;943.20;;;304.25;;
75048;SDS011;63803;53.120;8.764;2023-01-20T12:18:57;963.75;;;308.75;;
75048;SDS011;63803;53.120;8.764;2023-01-20T12:21:36;931.25;;;293.48;;
75048;SDS011;63803;53.120;8.764;2023-01-20T12:24:14;871.75;;;286.98;;
75048;SDS011;63803;53.120;8.764;2023-01-20T12:26:47;884.35;;;281.88;;
75048;SDS011;63803;53.120;8.764;2023-01-20T12:29:22;873.33;;;277.85;;
75048;SDS011;63803;53.120;8.764;2023-01-20T12:32:01;851.45;;;281.77;;
75048;SDS011;63803;53.120;8.764;2023-01-20T12:34:28;831.45;;;268.30;;
75048;SDS011;63803;53.120;8.764;2023-01-20T12:37:10;820.17;;;259.48;;
75048;SDS011;63803;53.120;8.764;2023-01-20T12:40:13;789.28;;;249.85;;
75048;SDS011;63803;53.120;8.764;2023-01-20T12:50:47;726.63;;;236.02;;
75048;SDS011;63803;53.120;8.764;2023-01-20T13:15:33;623.20;;;187.77;;
75048;SDS011;63803;53.120;8.764;2023-01-20T13:20:49;587.30;;;181.85;;
75048;SDS011;63803;53.120;8.764;2023-01-20T13:23:18;557.67;;;176.07;;
75048;SDS011;63803;53.120;8.764;2023-01-20T13:25:53;554.67;;;174.93;;
75048;SDS011;63803;53.120;8.764;2023-01-20T13:28:25;536.85;;;169.65;;
75048;SDS011;63803;53.120;8.764;2023-01-20T13:30:54;549.72;;;164.80;;
75048;SDS011;63803;53.120;8.764;2023-01-20T13:33:28;530.67;;;159.27;;
75048;SDS011;63803;53.120;8.764;2023-01-20T13:35:54;529.00;;;155.13;;
75048;SDS011;63803;53.120;8.764;2023-01-20T13:38:22;518.65;;;155.55;;
75048;SDS011;63803;53.120;8.764;2023-01-20T13:48:36;490.55;;;147.55;;
75048;SDS011;63803;53.120;8.764;2023-01-20T13:53:40;471.73;;;139.48;;
75048;SDS011;63803;53.120;8.764;2023-01-20T13:56:25;472.95;;;136.00;;
75048;SDS011;63803;53.120;8.764;2023-01-20T13:58:53;457.10;;;131.02;;
75048;SDS011;63803;53.120;8.764;2023-01-20T14:01:20;451.23;;;131.52;;
75048;SDS011;63803;53.120;8.764;2023-01-20T14:04:02;447.23;;;131.23;;
75048;SDS011;63803;53.120;8.764;2023-01-20T14:06:45;443.58;;;126.18;;
75048;SDS011;63803;53.120;8.764;2023-01-20T14:09:17;434.13;;;122.28;;
75048;SDS011;63803;53.120;8.764;2023-01-20T14:11:48;424.95;;;122.25;;
75048;SDS011;63803;53.120;8.764;2023-01-20T14:14:22;418.45;;;118.78;;
75048;SDS011;63803;53.120;8.764;2023-01-20T14:19:23;397.23;;;114.13;;
75048;SDS011;63803;53.120;8.764;2023-01-20T14:21:55;394.08;;;111.75;;
75048;SDS011;63803;53.120;8.764;2023-01-20T14:24:24;396.70;;;111.32;;
75048;SDS011;63803;53.120;8.764;2023-01-20T14:26:51;380.75;;;109.20;;
75048;SDS011;63803;53.120;8.764;2023-01-20T14:29:45;363.17;;;107.30;;
75048;SDS011;63803;53.120;8.764;2023-01-20T14:32:33;366.38;;;105.88;;
75048;SDS011;63803;53.120;8.764;2023-01-20T14:35:00;377.05;;;106.88;;
75048;SDS011;63803;53.120;8.764;2023-01-20T14:37:29;352.75;;;104.22;;
75048;SDS011;63803;53.120;8.764;2023-01-20T14:39:56;340.17;;;100.00;;
75048;SDS011;63803;53.120;8.764;2023-01-20T14:42:25;349.92;;;98.63;;
75048;SDS011;63803;53.120;8.764;2023-01-20T14:44:54;344.17;;;97.28;;
75048;SDS011;63803;53.120;8.764;2023-01-20T14:47:21;340.08;;;97.25;;
75048;SDS011;63803;53.120;8.764;2023-01-20T14:49:49;335.50;;;96.50;;
75048;SDS011;63803;53.120;8.764;2023-01-20T14:54:54;307.23;;;89.25;;
75048;SDS011;63803;53.120;8.764;2023-01-20T15:02:47;284.42;;;83.78;;
75048;SDS011;63803;53.120;8.764;2023-01-20T15:10:38;265.75;;;79.93;;
75048;SDS011;63803;53.120;8.764;2023-01-20T15:13:20;267.40;;;80.72;;
75048;SDS011;63803;53.120;8.764;2023-01-20T15:15:48;274.63;;;78.03;;
75048;SDS011;63803;53.120;8.764;2023-01-20T15:18:19;249.98;;;77.30;;
75048;SDS011;63803;53.120;8.764;2023-01-20T15:20:53;259.58;;;77.45;;
75048;SDS011;63803;53.120;8.764;2023-01-20T15:23:35;237.60;;;71.85;;
75048;SDS011;63803;53.120;8.764;2023-01-20T15:26:07;250.82;;;73.32;;
75048;SDS011;63803;53.120;8.764;2023-01-20T15:28:41;235.25;;;72.05;;
75048;SDS011;63803;53.120;8.764;2023-01-20T15:31:11;229.70;;;69.53;;
75048;SDS011;63803;53.120;8.764;2023-01-20T15:33:39;226.18;;;69.47;;
75048;SDS011;63803;53.120;8.764;2023-01-20T15:36:48;214.98;;;62.75;;
75048;SDS011;63803;53.120;8.764;2023-01-20T15:38:57;217.65;;;64.97;;
75048;SDS011;63803;53.120;8.764;2023-01-20T15:41:23;229.98;;;65.13;;
75048;SDS011;63803;53.120;8.764;2023-01-20T15:43:50;207.65;;;63.15;;
75048;SDS011;63803;53.120;8.764;2023-01-20T15:46:17;206.95;;;62.42;;
75048;SDS011;63803;53.120;8.764;2023-01-20T15:48:44;196.40;;;61.08;;
75048;SDS011;63803;53.120;8.764;2023-01-20T15:51:17;203.68;;;59.55;;
75048;SDS011;63803;53.120;8.764;2023-01-20T15:53:44;184.38;;;56.90;;
75048;SDS011;63803;53.120;8.764;2023-01-20T15:56:23;193.93;;;58.08;;
75048;SDS011;63803;53.120;8.764;2023-01-20T15:58:52;191.32;;;56.78;;
75048;SDS011;63803;53.120;8.764;2023-01-20T16:01:22;193.45;;;56.55;;
75048;SDS011;63803;53.120;8.764;2023-01-20T16:03:51;183.20;;;53.50;;
75048;SDS011;63803;53.120;8.764;2023-01-20T16:06:19;171.68;;;51.67;;
75048;SDS011;63803;53.120;8.764;2023-01-20T16:08:49;170.13;;;52.75;;
75048;SDS011;63803;53.120;8.764;2023-01-20T16:11:16;156.25;;;50.17;;
75048;SDS011;63803;53.120;8.764;2023-01-20T16:13:43;152.88;;;50.08;;
75048;SDS011;63803;53.120;8.764;2023-01-20T16:16:14;165.15;;;51.53;;
75048;SDS011;63803;53.120;8.764;2023-01-20T16:18:42;167.88;;;51.63;;
75048;SDS011;63803;53.120;8.764;2023-01-20T16:21:10;152.77;;;47.35;;
75048;SDS011;63803;53.120;8.764;2023-01-20T16:23:37;145.50;;;46.10;;
75048;SDS011;63803;53.120;8.764;2023-01-20T16:26:20;144.10;;;46.60;;
75048;SDS011;63803;53.120;8.764;2023-01-20T16:28:48;150.95;;;46.13;;
75048;SDS011;63803;53.120;8.764;2023-01-20T16:31:14;146.57;;;44.88;;
75048;SDS011;63803;53.120;8.764;2023-01-20T16:33:41;149.98;;;45.72;;
75048;SDS011;63803;53.120;8.764;2023-01-20T16:36:09;129.38;;;42.35;;
75048;SDS011;63803;53.120;8.764;2023-01-20T16:38:37;140.47;;;43.83;;
75048;SDS011;63803;53.120;8.764;2023-01-20T16:41:05;137.18;;;42.80;;
75048;SDS011;63803;53.120;8.764;2023-01-20T16:43:37;128.48;;;40.47;;
75048;SDS011;63803;53.120;8.764;2023-01-20T16:48:49;131.88;;;40.22;;
75048;SDS011;63803;53.120;8.764;2023-01-20T16:51:20;120.65;;;38.80;;
75048;SDS011;63803;53.120;8.764;2023-01-20T16:53:47;112.22;;;37.08;;
75048;SDS011;63803;53.120;8.764;2023-01-20T16:56:14;113.15;;;38.70;;
75048;SDS011;63803;53.120;8.764;2023-01-20T16:58:50;121.55;;;38.53;;
75048;SDS011;63803;53.120;8.764;2023-01-20T17:01:18;121.47;;;37.25;;
75048;SDS011;63803;53.120;8.764;2023-01-20T17:03:47;114.25;;;36.30;;
75048;SDS011;63803;53.120;8.764;2023-01-20T17:06:20;106.20;;;35.17;;
75048;SDS011;63803;53.120;8.764;2023-01-20T17:08:48;114.43;;;36.05;;
75048;SDS011;63803;53.120;8.764;2023-01-20T17:11:16;100.18;;;34.75;;
75048;SDS011;63803;53.120;8.764;2023-01-20T17:13:43;113.43;;;34.72;;